sensor_id;sensor_type;location;lat;lon;timestamp;pressure;altitude;pressure_sealevel;temperature;humidity
53679;BME280;40119;52.030;4.708;2023-04-28T00:00:03;101412.79;;;13.85;31.83
53679;BME280;40119;52.030;4.708;2023-04-28T00:02:07;101412.05;;;13.94;31.37
53679;BME280;40119;52.030;4.708;2023-04-28T00:04:13;101410.49;;;12.34;32.82
53679;BME280;40119;52.030;4.708;2023-04-28T00:06:17;101406.53;;;12.99;32.34
53679;BME280;40119;52.030;4.708;2023-04-28T00:08:21;101404.96;;;12.05;33.56
53679;BME280;40119;52.030;4.708;2023-04-28T00:11:56;101398.15;;;10.49;35.80
53679;BME280;40119;52.030;4.708;2023-04-28T00:14:21;101389.21;;;12.62;33.02
53679;BME280;40119;52.030;4.708;2023-04-28T00:16:45;101388.70;;;12.42;33.76
53679;BME280;40119;52.030;4.708;2023-04-28T00:18:55;101386.16;;;12.86;32.63
53679;BME280;40119;52.030;4.708;2023-04-28T00:21:00;101386.73;;;14.29;31.74
53679;BME280;40119;52.030;4.708;2023-04-28T00:23:04;101389.37;;;9.42;37.79
53679;BME280;40119;52.030;4.708;2023-04-28T00:25:14;101385.80;;;11.68;35.75
53679;BME280;40119;52.030;4.708;2023-04-28T00:27:18;101383.13;;;13.84;31.74
53679;BME280;40119;52.030;4.708;2023-04-28T00:29:23;101382.74;;;12.52;33.39
53679;BME280;40119;52.030;4.708;2023-04-28T00:31:27;101381.08;;;13.96;31.67
53679;BME280;40119;52.030;4.708;2023-04-28T00:33:31;101372.93;;;13.27;31.61
53679;BME280;40119;52.030;4.708;2023-04-28T00:35:37;101366.87;;;11.39;34.80
53679;BME280;40119;52.030;4.708;2023-04-28T00:37:41;101358.74;;;12.69;33.11
53679;BME280;40119;52.030;4.708;2023-04-28T00:39:45;101352.79;;;11.96;34.03
53679;BME280;40119;52.030;4.708;2023-04-28T00:41:50;101353.30;;;11.09;35.36
53679;BME280;40119;52.030;4.708;2023-04-28T00:43:55;101362.05;;;8.66;38.86
53679;BME280;40119;52.030;4.708;2023-04-28T00:46:01;101355.92;;;12.43;34.20
53679;BME280;40119;52.030;4.708;2023-04-28T00:48:12;101352.94;;;13.57;32.69
53679;BME280;40119;52.030;4.708;2023-04-28T00:50:17;101350.24;;;11.83;34.20
53679;BME280;40119;52.030;4.708;2023-04-28T00:52:21;101348.95;;;13.88;32.01
53679;BME280;40119;52.030;4.708;2023-04-28T00:54:26;101340.00;;;13.35;32.76
53679;BME280;40119;52.030;4.708;2023-04-28T00:56:30;101334.59;;;14.04;31.23
53679;BME280;40119;52.030;4.708;2023-04-28T00:58:37;101331.15;;;13.89;31.53
53679;BME280;40119;52.030;4.708;2023-04-28T01:00:42;101332.97;;;13.15;32.56
53679;BME280;40119;52.030;4.708;2023-04-28T01:02:51;101332.46;;;12.63;33.64
53679;BME280;40119;52.030;4.708;2023-04-28T01:04:57;101331.17;;;12.79;33.98
53679;BME280;40119;52.030;4.708;2023-04-28T01:07:02;101325.93;;;11.16;35.95
53679;BME280;40119;52.030;4.708;2023-04-28T01:09:07;101319.16;;;11.91;34.44
53679;BME280;40119;52.030;4.708;2023-04-28T01:11:11;101314.46;;;12.12;34.23
53679;BME280;40119;52.030;4.708;2023-04-28T01:13:15;101308.06;;;12.08;34.89
53679;BME280;40119;52.030;4.708;2023-04-28T01:15:20;101306.43;;;12.88;33.90
53679;BME280;40119;52.030;4.708;2023-04-28T01:17:24;101300.99;;;11.82;35.01
53679;BME280;40119;52.030;4.708;2023-04-28T01:19:28;101304.49;;;11.36;36.49
53679;BME280;40119;52.030;4.708;2023-04-28T01:21:34;101311.79;;;9.72;38.96
53679;BME280;40119;52.030;4.708;2023-04-28T01:23:39;101303.75;;;11.76;35.60
53679;BME280;40119;52.030;4.708;2023-04-28T01:25:43;101296.88;;;11.45;36.16
53679;BME280;40119;52.030;4.708;2023-04-28T01:27:47;101287.39;;;11.84;35.88
53679;BME280;40119;52.030;4.708;2023-04-28T01:29:52;101288.86;;;12.21;35.07
53679;BME280;40119;52.030;4.708;2023-04-28T01:31:56;101288.98;;;11.10;36.49
53679;BME280;40119;52.030;4.708;2023-04-28T01:34:00;101284.51;;;12.30;36.06
53679;BME280;40119;52.030;4.708;2023-04-28T01:36:06;101281.87;;;10.85;37.64
53679;BME280;40119;52.030;4.708;2023-04-28T01:38:11;101276.78;;;11.53;36.23
53679;BME280;40119;52.030;4.708;2023-04-28T01:40:15;101276.16;;;10.74;37.83
53679;BME280;40119;52.030;4.708;2023-04-28T01:42:19;101274.41;;;11.36;37.02
53679;BME280;40119;52.030;4.708;2023-04-28T01:44:24;101273.64;;;11.31;37.07
53679;BME280;40119;52.030;4.708;2023-04-28T01:46:28;101272.76;;;10.67;37.71
53679;BME280;40119;52.030;4.708;2023-04-28T01:48:37;101264.54;;;11.59;36.90
53679;BME280;40119;52.030;4.708;2023-04-28T01:50:42;101263.67;;;10.69;37.17
53679;BME280;40119;52.030;4.708;2023-04-28T01:52:52;101257.53;;;10.99;37.97
53679;BME280;40119;52.030;4.708;2023-04-28T01:54:56;101254.50;;;11.78;36.82
53679;BME280;40119;52.030;4.708;2023-04-28T01:57:00;101254.45;;;9.59;38.80
53679;BME280;40119;52.030;4.708;2023-04-28T01:59:05;101257.18;;;8.64;40.93
53679;BME280;40119;52.030;4.708;2023-04-28T02:01:12;101253.95;;;9.31;40.66
53679;BME280;40119;52.030;4.708;2023-04-28T02:03:17;101259.62;;;8.77;41.84
53679;BME280;40119;52.030;4.708;2023-04-28T02:05:22;101262.60;;;9.90;39.48
53679;BME280;40119;52.030;4.708;2023-04-28T02:07:26;101259.12;;;9.94;39.38
53679;BME280;40119;52.030;4.708;2023-04-28T02:09:31;101257.05;;;10.41;38.72
53679;BME280;40119;52.030;4.708;2023-04-28T02:11:36;101252.97;;;9.99;38.99
53679;BME280;40119;52.030;4.708;2023-04-28T02:13:42;101246.56;;;10.02;39.06
53679;BME280;40119;52.030;4.708;2023-04-28T02:15:46;101235.73;;;11.80;35.77
53679;BME280;40119;52.030;4.708;2023-04-28T02:17:50;101234.44;;;10.71;37.66
53679;BME280;40119;52.030;4.708;2023-04-28T02:19:55;101232.72;;;9.91;39.19
53679;BME280;40119;52.030;4.708;2023-04-28T02:21:59;101233.74;;;8.66;41.11
53679;BME280;40119;52.030;4.708;2023-04-28T02:24:06;101226.73;;;10.29;38.66
53679;BME280;40119;52.030;4.708;2023-04-28T02:26:10;101226.55;;;7.38;43.53
53679;BME280;40119;52.030;4.708;2023-04-28T02:28:15;101216.90;;;10.32;38.95
53679;BME280;40119;52.030;4.708;2023-04-28T02:30:19;101217.84;;;7.72;42.86
53679;BME280;40119;52.030;4.708;2023-04-28T02:32:24;101210.57;;;10.52;37.86
53679;BME280;40119;52.030;4.708;2023-04-28T02:34:28;101206.16;;;11.50;36.73
53679;BME280;40119;52.030;4.708;2023-04-28T02:36:32;101201.64;;;11.79;36.02
53679;BME280;40119;52.030;4.708;2023-04-28T02:38:37;101205.36;;;8.65;40.27
53679;BME280;40119;52.030;4.708;2023-04-28T02:40:42;101197.44;;;10.75;37.53
53679;BME280;40119;52.030;4.708;2023-04-28T02:42:46;101204.38;;;10.20;38.18
53679;BME280;40119;52.030;4.708;2023-04-28T02:45:00;101196.86;;;9.59;39.75
53679;BME280;40119;52.030;4.708;2023-04-28T02:47:06;101191.78;;;10.67;37.82
53679;BME280;40119;52.030;4.708;2023-04-28T02:49:15;101193.50;;;10.26;38.54
53679;BME280;40119;52.030;4.708;2023-04-28T02:51:20;101192.04;;;10.31;38.49
53679;BME280;40119;52.030;4.708;2023-04-28T02:53:29;101187.95;;;9.70;38.91
53679;BME280;40119;52.030;4.708;2023-04-28T02:55:35;101182.77;;;10.62;38.33
53679;BME280;40119;52.030;4.708;2023-04-28T02:57:40;101191.14;;;9.02;40.08
53679;BME280;40119;52.030;4.708;2023-04-28T02:59:45;101189.06;;;10.04;39.22
53679;BME280;40119;52.030;4.708;2023-04-28T03:01:49;101191.89;;;10.49;37.56
53679;BME280;40119;52.030;4.708;2023-04-28T03:03:54;101193.32;;;9.89;38.45
53679;BME280;40119;52.030;4.708;2023-04-28T03:06:03;101190.91;;;11.62;36.55
53679;BME280;40119;52.030;4.708;2023-04-28T03:08:08;101190.38;;;9.55;38.65
53679;BME280;40119;52.030;4.708;2023-04-28T03:10:13;101181.96;;;10.99;37.53
53679;BME280;40119;52.030;4.708;2023-04-28T03:12:17;101184.97;;;9.99;38.48
53679;BME280;40119;52.030;4.708;2023-04-28T03:14:21;101179.74;;;10.78;37.26
53679;BME280;40119;52.030;4.708;2023-04-28T03:16:26;101181.34;;;11.03;37.39
53679;BME280;40119;52.030;4.708;2023-04-28T03:18:30;101180.09;;;12.02;35.99
53679;BME280;40119;52.030;4.708;2023-04-28T03:20:36;101175.92;;;11.55;36.40
53679;BME280;40119;52.030;4.708;2023-04-28T03:22:41;101175.43;;;12.89;34.58
53679;BME280;40119;52.030;4.708;2023-04-28T03:24:45;101173.59;;;12.71;34.48
53679;BME280;40119;52.030;4.708;2023-04-28T03:26:50;101169.22;;;13.37;33.73
53679;BME280;40119;52.030;4.708;2023-04-28T03:29:01;101162.95;;;13.47;33.52
53679;BME280;40119;52.030;4.708;2023-04-28T03:31:20;101162.18;;;9.48;38.13
53679;BME280;40119;52.030;4.708;2023-04-28T03:33:26;101158.37;;;10.84;36.16
53679;BME280;40119;52.030;4.708;2023-04-28T03:36:02;101159.44;;;11.68;35.14
53679;BME280;40119;52.030;4.708;2023-04-28T03:38:06;101154.79;;;11.53;35.41
53679;BME280;40119;52.030;4.708;2023-04-28T03:40:12;101149.02;;;11.87;35.13
53679;BME280;40119;52.030;4.708;2023-04-28T03:42:16;101148.98;;;10.75;35.79
53679;BME280;40119;52.030;4.708;2023-04-28T03:44:21;101153.87;;;10.22;37.19
53679;BME280;40119;52.030;4.708;2023-04-28T03:46:25;101155.09;;;8.29;40.09
53679;BME280;40119;52.030;4.708;2023-04-28T03:48:29;101147.30;;;10.14;38.05
53679;BME280;40119;52.030;4.708;2023-04-28T03:50:34;101141.99;;;10.42;37.34
53679;BME280;40119;52.030;4.708;2023-04-28T03:52:39;101138.61;;;9.86;37.52
53679;BME280;40119;52.030;4.708;2023-04-28T03:54:43;101147.08;;;7.19;42.38
53679;BME280;40119;52.030;4.708;2023-04-28T03:56:53;101135.68;;;10.48;38.02
53679;BME280;40119;52.030;4.708;2023-04-28T03:58:57;101137.74;;;8.76;39.96
53679;BME280;40119;52.030;4.708;2023-04-28T04:01:01;101126.54;;;11.15;36.16
53679;BME280;40119;52.030;4.708;2023-04-28T04:03:06;101123.36;;;10.39;37.98
53679;BME280;40119;52.030;4.708;2023-04-28T04:05:10;101121.48;;;8.07;40.64
53679;BME280;40119;52.030;4.708;2023-04-28T04:07:14;101115.95;;;9.36;39.21
53679;BME280;40119;52.030;4.708;2023-04-28T04:09:19;101111.80;;;10.03;38.82
53679;BME280;40119;52.030;4.708;2023-04-28T04:11:23;101102.17;;;11.90;35.55
53679;BME280;40119;52.030;4.708;2023-04-28T04:13:28;101091.52;;;12.88;34.46
53679;BME280;40119;52.030;4.708;2023-04-28T04:15:32;101091.61;;;9.25;39.15
53679;BME280;40119;52.030;4.708;2023-04-28T04:17:37;101093.42;;;10.00;38.85
53679;BME280;40119;52.030;4.708;2023-04-28T04:19:41;101098.30;;;7.64;43.88
53679;BME280;40119;52.030;4.708;2023-04-28T04:21:51;101079.53;;;11.03;38.45
53679;BME280;40119;52.030;4.708;2023-04-28T04:24:01;101076.56;;;10.45;37.95
53679;BME280;40119;52.030;4.708;2023-04-28T04:26:05;101075.06;;;11.61;36.63
53679;BME280;40119;52.030;4.708;2023-04-28T04:28:10;101075.65;;;11.81;36.03
53679;BME280;40119;52.030;4.708;2023-04-28T04:30:15;101075.12;;;12.08;35.92
53679;BME280;40119;52.030;4.708;2023-04-28T04:32:20;101075.39;;;11.99;36.09
53679;BME280;40119;52.030;4.708;2023-04-28T04:34:30;101079.51;;;9.91;39.05
53679;BME280;40119;52.030;4.708;2023-04-28T04:36:36;101081.11;;;11.11;37.67
53679;BME280;40119;52.030;4.708;2023-04-28T04:38:41;101090.59;;;8.87;40.51
53679;BME280;40119;52.030;4.708;2023-04-28T04:40:46;101089.84;;;10.48;38.94
53679;BME280;40119;52.030;4.708;2023-04-28T04:42:51;101087.71;;;10.31;38.04
53679;BME280;40119;52.030;4.708;2023-04-28T04:44:56;101097.14;;;8.99;40.22
53679;BME280;40119;52.030;4.708;2023-04-28T04:47:00;101097.30;;;13.17;34.95
53679;BME280;40119;52.030;4.708;2023-04-28T04:49:16;101104.53;;;11.22;37.53
53679;BME280;40119;52.030;4.708;2023-04-28T04:51:22;101098.33;;;14.05;33.55
53679;BME280;40119;52.030;4.708;2023-04-28T04:53:27;101103.65;;;10.35;39.18
53679;BME280;40119;52.030;4.708;2023-04-28T04:55:37;101095.63;;;11.40;37.56
53679;BME280;40119;52.030;4.708;2023-04-28T05:18:45;101107.75;;;12.25;39.18
53679;BME280;40119;52.030;4.708;2023-04-28T05:20:49;101104.16;;;10.67;43.58
53679;BME280;40119;52.030;4.708;2023-04-28T05:22:57;101090.69;;;13.08;38.26
53679;BME280;40119;52.030;4.708;2023-04-28T05:25:08;101090.06;;;13.14;39.16
53679;BME280;40119;52.030;4.708;2023-04-28T05:27:12;101103.31;;;6.37;52.64
53679;BME280;40119;52.030;4.708;2023-04-28T05:29:17;101103.24;;;6.75;53.41
53679;BME280;40119;52.030;4.708;2023-04-28T05:31:21;101092.91;;;6.19;55.44
53679;BME280;40119;52.030;4.708;2023-04-28T05:33:25;101075.94;;;8.52;50.09
53679;BME280;40119;52.030;4.708;2023-04-28T05:35:30;101071.39;;;9.50;48.32
53679;BME280;40119;52.030;4.708;2023-04-28T05:37:37;101075.02;;;7.29;53.54
53679;BME280;40119;52.030;4.708;2023-04-28T05:39:41;101074.60;;;9.97;46.67
53679;BME280;40119;52.030;4.708;2023-04-28T05:41:46;101080.35;;;7.73;52.88
53679;BME280;40119;52.030;4.708;2023-04-28T05:43:50;101077.51;;;8.47;54.41
53679;BME280;40119;52.030;4.708;2023-04-28T05:45:55;101066.99;;;10.94;47.36
53679;BME280;40119;52.030;4.708;2023-04-28T05:48:00;101062.62;;;11.67;44.84
53679;BME280;40119;52.030;4.708;2023-04-28T05:50:05;101054.91;;;12.05;43.97
53679;BME280;40119;52.030;4.708;2023-04-28T05:52:10;101050.14;;;13.14;41.93
53679;BME280;40119;52.030;4.708;2023-04-28T05:54:14;101057.38;;;8.56;52.52
53679;BME280;40119;52.030;4.708;2023-04-28T05:56:36;101054.20;;;8.55;54.28
53679;BME280;40119;52.030;4.708;2023-04-28T05:58:40;101053.04;;;9.47;50.85
53679;BME280;40119;52.030;4.708;2023-04-28T06:00:45;101059.88;;;6.57;61.00
53679;BME280;40119;52.030;4.708;2023-04-28T06:02:49;101052.45;;;9.78;52.37
53679;BME280;40119;52.030;4.708;2023-04-28T06:04:54;101051.65;;;10.16;51.31
53679;BME280;40119;52.030;4.708;2023-04-28T06:06:58;101054.54;;;10.77;48.81
53679;BME280;40119;52.030;4.708;2023-04-28T06:09:02;101056.11;;;8.52;56.13
53679;BME280;40119;52.030;4.708;2023-04-28T06:11:07;101061.56;;;5.28;61.66
53679;BME280;40119;52.030;4.708;2023-04-28T06:13:16;101058.13;;;9.24;53.28
53679;BME280;40119;52.030;4.708;2023-04-28T06:15:20;101063.21;;;8.26;54.45
53679;BME280;40119;52.030;4.708;2023-04-28T06:35:38;101062.10;;;11.43;49.47
53679;BME280;40119;52.030;4.708;2023-04-28T06:37:42;101055.55;;;11.51;48.06
53679;BME280;40119;52.030;4.708;2023-04-28T06:39:46;101049.98;;;8.93;55.86
53679;BME280;40119;52.030;4.708;2023-04-28T06:41:50;101042.79;;;8.32;58.66
53679;BME280;40119;52.030;4.708;2023-04-28T06:43:55;101043.96;;;6.28;66.92
53679;BME280;40119;52.030;4.708;2023-04-28T06:46:14;101037.75;;;9.62;57.76
53679;BME280;40119;52.030;4.708;2023-04-28T06:48:18;101035.58;;;8.63;60.20
53679;BME280;40119;52.030;4.708;2023-04-28T06:50:35;101027.95;;;13.21;47.51
53679;BME280;40119;52.030;4.708;2023-04-28T06:52:40;101028.31;;;7.27;61.95
53679;BME280;40119;52.030;4.708;2023-04-28T06:54:44;101027.91;;;7.03;64.46
53679;BME280;40119;52.030;4.708;2023-04-28T06:56:48;101022.40;;;10.77;56.34
53679;BME280;40119;52.030;4.708;2023-04-28T06:58:53;101017.52;;;10.10;56.27
53679;BME280;40119;52.030;4.708;2023-04-28T07:00:58;101022.26;;;10.69;58.03
53679;BME280;40119;52.030;4.708;2023-04-28T07:03:03;101025.81;;;12.19;52.26
53679;BME280;40119;52.030;4.708;2023-04-28T07:05:08;101030.20;;;9.38;59.68
53679;BME280;40119;52.030;4.708;2023-04-28T07:07:12;101031.92;;;8.10;63.02
53679;BME280;40119;52.030;4.708;2023-04-28T07:09:16;101041.33;;;6.78;67.38
53679;BME280;40119;52.030;4.708;2023-04-28T07:11:21;101041.61;;;9.85;66.02
53679;BME280;40119;52.030;4.708;2023-04-28T07:13:25;101047.84;;;8.18;63.44
53679;BME280;40119;52.030;4.708;2023-04-28T07:15:29;101039.75;;;10.33;60.44
53679;BME280;40119;52.030;4.708;2023-04-28T07:17:33;101041.91;;;7.74;69.44
53679;BME280;40119;52.030;4.708;2023-04-28T07:19:38;101045.74;;;7.40;67.49
53679;BME280;40119;52.030;4.708;2023-04-28T07:21:42;101045.76;;;8.66;65.14
53679;BME280;40119;52.030;4.708;2023-04-28T07:23:46;101045.83;;;11.94;56.55
53679;BME280;40119;52.030;4.708;2023-04-28T07:25:50;101047.13;;;10.99;60.07
53679;BME280;40119;52.030;4.708;2023-04-28T07:27:55;101046.79;;;10.59;59.71
53679;BME280;40119;52.030;4.708;2023-04-28T07:29:59;101049.28;;;11.58;59.02
53679;BME280;40119;52.030;4.708;2023-04-28T07:32:03;101050.10;;;11.85;56.72
53679;BME280;40119;52.030;4.708;2023-04-28T07:34:08;101051.21;;;9.69;63.05
53679;BME280;40119;52.030;4.708;2023-04-28T07:36:12;101051.50;;;8.47;66.72
53679;BME280;40119;52.030;4.708;2023-04-28T07:38:16;101052.09;;;9.34;68.17
53679;BME280;40119;52.030;4.708;2023-04-28T07:40:21;101053.41;;;7.60;70.30
53679;BME280;40119;52.030;4.708;2023-04-28T07:42:25;101053.14;;;8.70;67.36
53679;BME280;40119;52.030;4.708;2023-04-28T07:44:29;101058.78;;;7.60;71.23
53679;BME280;40119;52.030;4.708;2023-04-28T07:46:34;101054.08;;;9.90;65.11
53679;BME280;40119;52.030;4.708;2023-04-28T07:48:38;101050.76;;;8.32;73.15
53679;BME280;40119;52.030;4.708;2023-04-28T07:50:43;101056.72;;;5.34;84.07
53679;BME280;40119;52.030;4.708;2023-04-28T07:52:47;101043.61;;;8.81;75.91
53679;BME280;40119;52.030;4.708;2023-04-28T07:54:51;101039.89;;;10.14;68.64
53679;BME280;40119;52.030;4.708;2023-04-28T07:56:55;101037.49;;;9.54;76.48
53679;BME280;40119;52.030;4.708;2023-04-28T07:58:59;101036.12;;;9.09;76.56
53679;BME280;40119;52.030;4.708;2023-04-28T08:01:04;101037.73;;;9.34;71.13
53679;BME280;40119;52.030;4.708;2023-04-28T08:03:08;101040.63;;;8.91;72.43
53679;BME280;40119;52.030;4.708;2023-04-28T08:05:13;101043.21;;;6.80;85.85
53679;BME280;40119;52.030;4.708;2023-04-28T08:07:17;101041.03;;;8.69;77.83
53679;BME280;40119;52.030;4.708;2023-04-28T08:09:21;101040.53;;;9.64;74.30
53679;BME280;40119;52.030;4.708;2023-04-28T08:11:25;101045.38;;;7.75;78.53
53679;BME280;40119;52.030;4.708;2023-04-28T08:13:29;101037.68;;;11.19;69.14
53679;BME280;40119;52.030;4.708;2023-04-28T08:15:35;101037.94;;;9.70;71.83
53679;BME280;40119;52.030;4.708;2023-04-28T08:17:39;101040.36;;;10.57;69.34
53679;BME280;40119;52.030;4.708;2023-04-28T08:19:43;101042.13;;;7.81;79.12
53679;BME280;40119;52.030;4.708;2023-04-28T08:21:52;101041.19;;;7.73;80.93
53679;BME280;40119;52.030;4.708;2023-04-28T08:23:57;101040.84;;;8.98;76.90
53679;BME280;40119;52.030;4.708;2023-04-28T08:26:01;101038.60;;;11.97;69.44
53679;BME280;40119;52.030;4.708;2023-04-28T08:28:05;101043.61;;;8.54;74.98
53679;BME280;40119;52.030;4.708;2023-04-28T08:30:09;101041.37;;;11.34;70.97
53679;BME280;40119;52.030;4.708;2023-04-28T08:32:14;101043.07;;;10.22;71.73
53679;BME280;40119;52.030;4.708;2023-04-28T08:34:18;101035.42;;;13.53;60.30
53679;BME280;40119;52.030;4.708;2023-04-28T08:36:22;101041.21;;;12.46;63.96
53679;BME280;40119;52.030;4.708;2023-04-28T08:38:27;101039.42;;;11.44;65.11
53679;BME280;40119;52.030;4.708;2023-04-28T08:40:31;101038.55;;;12.56;62.73
53679;BME280;40119;52.030;4.708;2023-04-28T08:42:37;101036.78;;;11.87;67.56
53679;BME280;40119;52.030;4.708;2023-04-28T08:44:41;101040.16;;;9.29;72.16
53679;BME280;40119;52.030;4.708;2023-04-28T08:46:49;101033.33;;;10.56;71.10
53679;BME280;40119;52.030;4.708;2023-04-28T08:48:59;101038.59;;;10.18;70.66
53679;BME280;40119;52.030;4.708;2023-04-28T08:51:04;101038.41;;;9.72;74.75
53679;BME280;40119;52.030;4.708;2023-04-28T08:53:10;101032.63;;;8.76;81.69
53679;BME280;40119;52.030;4.708;2023-04-28T08:55:15;101028.30;;;12.14;69.78
53679;BME280;40119;52.030;4.708;2023-04-28T08:57:21;101032.44;;;10.09;73.55
53679;BME280;40119;52.030;4.708;2023-04-28T08:59:25;101027.16;;;11.73;69.90
53679;BME280;40119;52.030;4.708;2023-04-28T09:01:29;101025.94;;;11.33;73.19
53679;BME280;40119;52.030;4.708;2023-04-28T09:03:34;101020.40;;;15.08;63.23
53679;BME280;40119;52.030;4.708;2023-04-28T09:05:39;101019.70;;;15.05;59.00
53679;BME280;40119;52.030;4.708;2023-04-28T09:07:45;101018.20;;;15.05;61.51
53679;BME280;40119;52.030;4.708;2023-04-28T09:09:49;101021.73;;;11.92;69.70
53679;BME280;40119;52.030;4.708;2023-04-28T09:11:59;101018.57;;;11.78;70.84
53679;BME280;40119;52.030;4.708;2023-04-28T09:14:11;101017.93;;;11.27;73.59
53679;BME280;40119;52.030;4.708;2023-04-28T09:16:15;101018.88;;;10.77;73.06
53679;BME280;40119;52.030;4.708;2023-04-28T09:18:19;101009.52;;;14.37;61.21
53679;BME280;40119;52.030;4.708;2023-04-28T09:20:24;101014.39;;;14.07;63.17
53679;BME280;40119;52.030;4.708;2023-04-28T09:22:29;101009.19;;;10.50;72.65
53679;BME280;40119;52.030;4.708;2023-04-28T09:24:35;101008.68;;;13.18;62.09
53679;BME280;40119;52.030;4.708;2023-04-28T09:26:48;101006.09;;;14.59;60.24
53679;BME280;40119;52.030;4.708;2023-04-28T09:29:11;101008.23;;;11.00;69.14
53679;BME280;40119;52.030;4.708;2023-04-28T09:31:23;101006.88;;;10.62;72.75
53679;BME280;40119;52.030;4.708;2023-04-28T09:33:27;101002.76;;;12.07;69.30
53679;BME280;40119;52.030;4.708;2023-04-28T09:35:40;101009.59;;;9.48;74.94
53679;BME280;40119;52.030;4.708;2023-04-28T09:37:45;101001.73;;;13.01;65.23
53679;BME280;40119;52.030;4.708;2023-04-28T09:39:54;101008.69;;;8.89;81.05
53679;BME280;40119;52.030;4.708;2023-04-28T09:42:10;100999.15;;;12.24;71.49
53679;BME280;40119;52.030;4.708;2023-04-28T09:44:16;101003.51;;;12.09;69.09
53679;BME280;40119;52.030;4.708;2023-04-28T09:46:28;101004.11;;;11.16;75.12
53679;BME280;40119;52.030;4.708;2023-04-28T09:48:33;100998.72;;;14.08;65.72
53679;BME280;40119;52.030;4.708;2023-04-28T09:50:39;101004.23;;;11.21;70.57
53679;BME280;40119;52.030;4.708;2023-04-28T09:52:45;101004.61;;;10.21;76.85
53679;BME280;40119;52.030;4.708;2023-04-28T09:54:58;101007.06;;;9.51;80.62
53679;BME280;40119;52.030;4.708;2023-04-28T09:57:04;101012.61;;;9.38;90.78
53679;BME280;40119;52.030;4.708;2023-04-28T09:59:08;101011.52;;;9.70;86.81
53679;BME280;40119;52.030;4.708;2023-04-28T10:01:40;101018.83;;;8.63;92.46
53679;BME280;40119;52.030;4.708;2023-04-28T10:03:49;101018.19;;;8.97;96.12
53679;BME280;40119;52.030;4.708;2023-04-28T10:05:56;101017.88;;;8.96;96.49
53679;BME280;40119;52.030;4.708;2023-04-28T10:08:16;101017.80;;;8.43;99.26
53679;BME280;40119;52.030;4.708;2023-04-28T10:13:22;101022.50;;;8.17;100.00
53679;BME280;40119;52.030;4.708;2023-04-28T10:15:28;101026.22;;;8.01;100.00
53679;BME280;40119;52.030;4.708;2023-04-28T10:17:33;101022.81;;;9.44;100.00
53679;BME280;40119;52.030;4.708;2023-04-28T10:19:45;101026.70;;;8.09;100.00
53679;BME280;40119;52.030;4.708;2023-04-28T10:21:59;101030.63;;;7.68;100.00
53679;BME280;40119;52.030;4.708;2023-04-28T10:24:21;101024.55;;;7.91;100.00
53679;BME280;40119;52.030;4.708;2023-04-28T10:26:56;101029.71;;;7.58;100.00
53679;BME280;40119;52.030;4.708;2023-04-28T10:29:08;101030.91;;;8.42;100.00
53679;BME280;40119;52.030;4.708;2023-04-28T10:31:14;101035.06;;;7.39;100.00
53679;BME280;40119;52.030;4.708;2023-04-28T10:34:21;101031.71;;;10.05;100.00
53679;BME280;40119;52.030;4.708;2023-04-28T10:36:47;101033.52;;;7.77;100.00
53679;BME280;40119;52.030;4.708;2023-04-28T10:39:09;101033.89;;;10.03;100.00
53679;BME280;40119;52.030;4.708;2023-04-28T10:41:50;101035.15;;;10.49;100.00
